• Join FlightAware (Why Join?)
  • Login
  • US Flag 
04:15AM EDT


 

Airport Tracker/Info


-or-


 

Live Flight TrackerFlight Track Log ✈ DAL3672 ✈ 24-Apr-2013 ✈ KMHT - KDTW

Flight Track Log - Related Links

Times and Time Zones

All times are in EDT time to prevent confusion due to time zone crossing. See the DAL3672 flight status page for this flight to view local times or setup timezone preferences in your user account.

Time Position Orientation Groundspeed Altitude Reporting Facility
EDT Latitude Longitude Course Direction KTS MPH feet Rate Location/Type
12:44PM 43.0364 -71.4942 333° Northwest 274 315 5,200  Level Boston Center
12:45PM 43.0825 -71.5561 316° Northwest 235 270 7,500 2,280 Climbing Boston Center
12:46PM 42.9500 -71.9365 270° West  Level FlightAware Approximate
12:47PM 42.9501 -72.0635 270° West  Level FlightAware Approximate
12:47PM 43.0981 -71.6639 281° West 225 259 10,300  Level Boston Center
12:48PM 42.9500 -72.1905 270° West  Level FlightAware Approximate
12:48PM 43.1031 -71.8003 273° West 291 335 11,200  Level Boston Center
12:49PM 43.1078 -71.9311 273° West 336 387 12,100 1,200 Climbing Boston Center
12:50PM 43.1106 -72.0733 272° West 367 422 13,600 1,200 Climbing Boston Center
12:51PM 43.1150 -72.2153 273° West 378 435 14,500 900 Climbing Boston Center
12:52PM 43.1214 -72.3492 274° West 383 441 15,400 1,200 Climbing Boston Center
12:53PM 43.1256 -72.4942 272° West 383 441 16,900 1,320 Climbing Boston Center
12:54PM 43.1297 -72.6364 272° West 383 441 18,100 1,140 Climbing Boston Center
12:55PM 43.1294 -72.7786 270° West 383 441 19,200 1,020 Climbing Boston Center
12:56PM 43.1331 -72.9236 272° West 383 441 20,200 1,020 Climbing Boston Center
12:57PM 43.1383 -73.0831 273° West 388 447 21,300 960 Climbing Boston Center
12:58PM 43.1417 -73.2283 272° West 383 441 22,200 660 Climbing Boston Center
12:59PM 43.1428 -73.3761 271° West 383 441 22,700 480 Climbing Boston Center
01:00PM 43.1433 -73.5272 270° West 383 441 23,200 480 Climbing Boston Center
01:01PM 43.1461 -73.6781 271° West 388 447 23,700 480 Climbing Boston Center
01:02PM 43.1464 -73.8203 270° West 399 459 24,200 480 Climbing Boston Center
01:03PM 43.1508 -73.9711 272° West 405 466 24,700 480 Climbing Boston Center
01:04PM 43.1528 -74.1222 271° West 405 466 25,200 480 Climbing Boston Center
01:05PM 43.1547 -74.2758 271° West 405 466 25,700 480 Climbing Boston Center
01:06PM 43.1564 -74.4267 271° West 405 466 26,200 480 Climbing Boston Center
01:07PM 43.1578 -74.5775 271° West 405 466 26,700 480 Climbing Boston Center
01:08PM 43.1611 -74.7314 272° West 405 466 27,200 480 Climbing Boston Center
01:09PM 43.1600 -74.8794 269° West 405 466 27,700 360 Climbing Boston Center
01:10PM 43.1625 -75.0475 271° West 400 460 28,000 120 Climbing Boston Center
01:11PM 43.1611 -75.2011 269° West 405 466 28,000  Level Boston Center
01:12PM 43.1614 -75.3550 270° West 405 466 28,000  Level Boston Center
01:13PM 43.1614 -75.5086 270° West 405 466 28,000  Level Boston Center
01:14PM 43.1636 -75.6597 271° West 405 466 28,000  Level Boston Center
01:15PM 43.1633 -75.8136 270° West 405 466 28,000  Level Boston Center
01:16PM 43.1631 -75.9644 270° West 405 466 28,000  Level Boston Center
01:17PM 43.1625 -76.1125 270° West 405 466 28,000  Level Boston Center
01:18PM 43.1575 -76.2658 267° West 400 460 28,000  Level Boston Center
01:19PM 43.1439 -76.4142 263° West 402 463 28,000  Level Cleveland Center
01:20PM 43.1303 -76.5633 263° West 417 480 28,000  Level Cleveland Center
01:21PM 43.1219 -76.6833 265° West 411 473 28,000  Level Cleveland Center
01:22PM 43.1044 -76.8494 262° West 411 473 28,000  Level Cleveland Center
01:23PM 43.0903 -76.9981 263° West 406 467 28,000  Level Cleveland Center
01:24PM 43.0803 -77.1436 265° West 406 467 28,000  Level Cleveland Center
01:25PM 43.0636 -77.2925 261° West 401 461 28,000  Level Cleveland Center
01:26PM 43.0492 -77.4408 262° West 401 461 28,000  Level Cleveland Center
01:27PM 43.0364 -77.5894 263° West 401 461 28,000  Level Cleveland Center
01:28PM 43.0233 -77.7375 263° West 401 461 28,000  Level Cleveland Center
01:29PM 43.0081 -77.8831 262° West 396 456 28,000  Level Cleveland Center
01:30PM 42.9931 -78.0428 263° West 391 450 28,000  Level Cleveland Center
01:31PM 42.9772 -78.1881 262° West 391 450 28,000  Level Cleveland Center
01:32PM 42.9636 -78.3333 263° West 391 450 28,000  Level Cleveland Center
01:33PM 42.9475 -78.4758 261° West 391 450 28,000  Level Cleveland Center
01:34PM 42.9333 -78.6236 263° West 391 450 28,000  Level Cleveland Center
01:35PM 42.9128 -78.7661 259° West 391 450 28,000  Level Cleveland Center
01:36PM 42.8919 -78.9083 259° West 391 450 28,000  Level Cleveland Center
01:37PM 42.8731 -79.0506 260° West 391 450 28,000  Level Cleveland Center
01:38PM 42.8519 -79.1983 259° West 391 450 28,000  Level Cleveland Center
01:39PM 42.8286 -79.3403 257° West 391 450 28,000  Level Cleveland Center
01:40PM 42.8114 -79.4822 261° West 391 450 28,000  Level Cleveland Center
01:41PM 42.7897 -79.6242 258° West 391 450 28,000  Level Cleveland Center
01:42PM 42.7658 -79.7658 257° West 391 450 28,000  Level Cleveland Center
01:43PM 42.7500 -79.9103 262° West 391 450 28,000  Level Cleveland Center
01:44PM 42.7425 -80.0631 266° West 402 463 28,000  Level Cleveland Center
01:45PM 42.7347 -80.2044 266° West 402 463 28,000  Level Cleveland Center
01:46PM 42.7308 -80.3569 268° West 396 456 28,000  Level Cleveland Center
01:47PM 42.7228 -80.5011 266° West 396 456 28,000  Level Cleveland Center
01:48PM 42.7186 -80.6483 268° West 396 456 28,000  Level Cleveland Center
01:49PM 42.7100 -80.7950 265° West 391 450 28,000  Level Cleveland Center
01:50PM 42.6994 -80.9364 264° West 386 444 28,000 -180 Level Cleveland Center
01:51PM 42.6864 -81.0661 262° West 386 444 27,700 -960 Descending Cleveland Center
01:52PM 42.6689 -81.2100 261° West 391 450 26,100 -1,500 Descending Cleveland Center
01:53PM 42.6536 -81.3483 262° West 386 444 24,700 -1,380 Descending Cleveland Center
01:54PM 42.6506 -81.4753 268° West 363 418 23,400 -1,440 Descending Cleveland Center
01:56PM 42.7444 -81.6942 300° West 333 383 20,400 -1,500 Descending Cleveland Center
01:57PM 42.7228 -81.7842 252° West 251 289 18,900 -1,440 Descending Cleveland Center
01:58PM 42.6989 -81.8800 251° West 257 296 17,600 -1,200 Descending Cleveland Center
01:59PM 42.6706 -81.9781 249° West 268 308 16,600 -1,020 Descending Cleveland Center
02:00PM 42.6444 -82.0736 250° West 268 308 15,600 -900 Descending Cleveland Center
02:01PM 42.6181 -82.1631 248° West 268 308 14,800 -900 Descending Cleveland Center
02:02PM 42.5919 -82.2556 249° West 268 308 13,800 -1,080 Descending Cleveland Center
02:02PM 42.5678 -82.3339 247° West 269 310 13,000 -1,020 Descending Cleveland Center
02:03PM 42.5633 -82.3506 250° West 273 314 12,800 -840 Descending Cleveland Center
02:03PM 42.5389 -82.4403 250° West 284 327 12,100 -480 Descending Cleveland Center
02:04PM 42.5147 -82.5211 248° West 269 310 12,100  Level Cleveland Center
02:05PM 42.5081 -82.5436 248° West 279 321 12,100  Level Cleveland Center
02:05PM 42.4794 -82.6269 245° Southwest 311 358 12,100  Level Cleveland Center
02:06PM 42.4400 -82.7383 244° Southwest 305 351 12,100  Level Cleveland Center
02:07PM 42.4092 -82.8300 246° West 306 352 12,100  Level Cleveland Center
02:08PM 42.3983 -82.8494 233° Southwest 298 343 12,100  Level Cleveland Center
02:08PM 42.3650 -82.9467 245° Southwest 306 352 12,100  Level Cleveland Center
02:09PM 42.3294 -83.0547 246° West 306 352 12,100  Level Cleveland Center
02:10PM 42.3011 -83.1258 242° Southwest 305 351 12,100  Level FAA TRACON SMA TRACON (SMA)
02:10PM 42.2908 -83.1547 244° Southwest 276 318 12,100  Level FAA TRACON SMA TRACON (SMA)
02:11PM 42.2811 -83.1811 244° Southwest 249 287 12,100  Level FAA TRACON SMA TRACON (SMA)
02:11PM 42.2619 -83.2047 222° Southwest 244 281 12,100  Level FAA TRACON SMA TRACON (SMA)
02:11PM 42.2442 -83.2189 211° Southwest 243 280 12,100 -600 Level FAA TRACON SMA TRACON (SMA)
02:12PM 42.2256 -83.2333 210° Southwest 246 283 11,700 -1,800 Descending FAA TRACON SMA TRACON (SMA)
02:12PM 42.2031 -83.2508 210° Southwest 243 280 10,900 -1,920 Descending FAA TRACON SMA TRACON (SMA)
02:12PM 42.1847 -83.2644 209° Southwest 242 278 10,400 -1,740 Descending FAA TRACON SMA TRACON (SMA)
02:13PM 42.1661 -83.2781 208° Southwest 243 280 9,800 -2,040 Descending FAA TRACON SMA TRACON (SMA)
02:13PM 42.1433 -83.2950 209° Southwest 243 280 9,100 -1,800 Descending FAA TRACON SMA TRACON (SMA)
02:14PM 42.1064 -83.3228 209° Southwest 245 282 8,000 -1,800 Descending FAA TRACON SMA TRACON (SMA)
02:14PM 42.0831 -83.3403 209° Southwest 247 284 7,300 -1,980 Descending FAA TRACON SMA TRACON (SMA)
02:14PM 42.0642 -83.3547 210° Southwest 251 289 6,700 -1,680 Descending FAA TRACON SMA TRACON (SMA)
02:15PM 42.0447 -83.3686 208° Southwest 254 292 6,200 -1,740 Descending FAA TRACON SMA TRACON (SMA)
02:15PM 42.0250 -83.3831 209° Southwest 259 298 5,600 -1,740 Descending FAA TRACON SMA TRACON (SMA)
02:15PM 41.9994 -83.4006 207° Southwest 263 303 5,100 -780 Descending FAA TRACON SMA TRACON (SMA)
02:16PM 41.9789 -83.4147 207° Southwest 268 308 5,100  Level FAA TRACON SMA TRACON (SMA)
02:16PM 41.9583 -83.4286 207° Southwest 268 308 5,100  Level FAA TRACON SMA TRACON (SMA)
02:16PM 41.9328 -83.4458 207° Southwest 267 307 5,100  Level FAA TRACON SMA TRACON (SMA)
02:17PM 41.9119 -83.4594 206° Southwest 268 308 5,100  Level FAA TRACON SMA TRACON (SMA)
02:17PM 41.8914 -83.4736 207° Southwest 270 311 5,100 -660 Level FAA TRACON SMA TRACON (SMA)
02:17PM 41.8656 -83.4911 207° Southwest 269 310 4,700 -1,080 Descending FAA TRACON SMA TRACON (SMA)
02:18PM 41.8497 -83.5094 221° Southwest 254 292 4,400 -900 Descending FAA TRACON SMA TRACON (SMA)
02:18PM 41.8472 -83.5411 264° West 230 265 4,100 -480 Descending FAA TRACON SMA TRACON (SMA)
02:18PM 41.8583 -83.5586 310° West 210 242 4,100  Level FAA TRACON SMA TRACON (SMA)
02:19PM 41.8781 -83.5600 357° North 203 234 4,100  Level FAA TRACON SMA TRACON (SMA)
02:19PM 41.8986 -83.5564 North 198 228 4,100  Level FAA TRACON SMA TRACON (SMA)
02:19PM 41.9150 -83.5536 North 191 220 4,100  Level FAA TRACON SMA TRACON (SMA)